Time;durP1;ratioP1;P1;durP2;ratioP2;P2;SDS_P1;SDS_P2;PMS_P1;PMS_P2;Temp;Humidity;BMP_temperature;BMP_pressure;BME280_temperature;BME280_humidity;BME280_pressure;Samples;Min_cycle;Max_cycle;Signal;HPM_P1;HPM_P2
2022/12/25 00:01:12;;;;;;;194.57;23.10;;;3.60;99.90;;;;;;5022982;28;20054;-80
2022/12/25 00:03:38;;;;;;;95.63;19.92;;;3.60;99.90;;;;;;5023456;28;20053;-80
2022/12/25 00:06:04;;;;;;;122.78;20.35;;;3.60;99.90;;;;;;5026579;28;20044;-80
2022/12/25 00:08:30;;;;;;;99.82;20.60;;;3.60;99.90;;;;;;5026177;28;20041;-80
2022/12/25 00:11:07;;;;;;;74.88;18.52;;;3.60;99.90;;;;;;5027297;28;20046;-80
2022/12/25 00:13:33;;;;;;;73.38;17.90;;;3.60;99.90;;;;;;5020333;28;20537;-80
2022/12/25 00:15:59;;;;;;;66.32;19.75;;;3.60;99.90;;;;;;5025695;28;20276;-80
2022/12/25 00:18:24;;;;;;;104.13;20.23;;;3.70;99.90;;;;;;5026319;28;20041;-80
2022/12/25 00:21:02;;;;;;;76.00;17.70;;;3.70;99.90;;;;;;5026186;28;20048;-80
2022/12/25 00:23:29;;;;;;;66.10;17.75;;;3.70;99.90;;;;;;5024146;28;20053;-80
2022/12/25 00:25:54;;;;;;;72.30;19.25;;;3.70;99.90;;;;;;5025816;28;20033;-80
2022/12/25 00:28:21;;;;;;;62.60;17.98;;;3.70;99.90;;;;;;5024678;28;20404;-80
2022/12/25 00:30:47;;;;;;;167.32;25.67;;;3.70;99.90;;;;;;5011535;28;20041;-80
2022/12/25 00:33:13;;;;;;;54.50;17.27;;;3.80;99.90;;;;;;5024757;28;20037;-80
2022/12/25 00:35:39;;;;;;;94.78;20.77;;;3.70;99.90;;;;;;5026835;28;20053;-80
2022/12/25 00:38:05;;;;;;;75.65;18.85;;;3.70;99.90;;;;;;5025360;28;20105;-80
2022/12/25 00:40:31;;;;;;;88.65;20.42;;;3.70;99.90;;;;;;5009250;28;20046;-80
2022/12/25 00:42:57;;;;;;;55.17;16.75;;;3.70;99.90;;;;;;5026250;28;20519;-80
2022/12/25 00:45:23;;;;;;;91.72;19.88;;;3.80;99.90;;;;;;5026788;28;20077;-80
2022/12/25 00:47:51;;;;;;;105.70;20.40;;;3.80;99.90;;;;;;5023952;28;20045;-80
2022/12/25 00:50:17;;;;;;;82.93;19.55;;;3.80;99.90;;;;;;5027201;28;20045;-80
2022/12/25 00:52:42;;;;;;;81.18;18.70;;;3.80;99.90;;;;;;5024310;28;20052;-80
2022/12/25 00:55:08;;;;;;;72.93;17.42;;;3.90;99.90;;;;;;5025430;28;20121;-80
2022/12/25 00:57:34;;;;;;;68.82;19.27;;;4.00;99.90;;;;;;5025508;28;20102;-80
2022/12/25 00:59:59;;;;;;;67.05;18.45;;;4.00;99.90;;;;;;5025517;28;20042;-80
2022/12/25 01:02:25;;;;;;;69.90;18.83;;;4.10;99.90;;;;;;5018300;28;20042;-80
2022/12/25 01:04:53;;;;;;;76.80;19.27;;;4.20;99.90;;;;;;5007610;28;20662;-80
2022/12/25 01:07:20;;;;;;;80.25;19.55;;;4.30;99.90;;;;;;5017519;28;20049;-80
2022/12/25 01:12:33;;;;;;;113.20;21.48;;;4.50;99.90;;;;;;5017683;28;20050;-80
2022/12/25 01:14:58;;;;;;;130.38;25.45;;;4.50;99.90;;;;;;5028466;28;20106;-81
2022/12/25 01:17:24;;;;;;;139.18;23.33;;;4.60;99.90;;;;;;5023672;28;20042;-80
2022/12/25 01:19:50;;;;;;;148.50;24.17;;;4.60;99.90;;;;;;5025963;28;20348;-80
2022/12/25 01:22:15;;;;;;;100.35;22.00;;;4.70;99.90;;;;;;5027163;28;20037;-80
2022/12/25 01:24:43;;;;;;;114.88;21.55;;;4.80;99.90;;;;;;5013980;28;20456;-80
2022/12/25 01:27:10;;;;;;;136.57;23.60;;;4.80;99.90;;;;;;5032187;28;20071;-80
2022/12/25 01:29:35;;;;;;;219.13;28.55;;;4.80;99.90;;;;;;5005128;28;20057;-80
2022/12/25 01:32:01;;;;;;;281.75;30.27;;;4.90;99.90;;;;;;5024320;28;20388;-80
2022/12/25 01:34:27;;;;;;;111.03;23.52;;;4.90;99.90;;;;;;5025177;28;20091;-80
2022/12/25 01:36:52;;;;;;;160.35;25.30;;;4.90;99.90;;;;;;5014199;28;20412;-80
2022/12/25 01:39:18;;;;;;;187.48;29.20;;;4.90;99.90;;;;;;5029579;28;20110;-80
2022/12/25 01:41:43;;;;;;;143.27;23.63;;;4.90;99.90;;;;;;5008410;28;20064;-80
2022/12/25 01:44:12;;;;;;;96.38;21.77;;;4.90;99.90;;;;;;5012775;28;20037;-80
2022/12/25 01:46:38;;;;;;;103.07;22.35;;;4.90;99.90;;;;;;5014149;28;20562;-80
2022/12/25 01:49:08;;;;;;;93.72;21.02;;;5.00;99.90;;;;;;5012572;28;20038;-81
2022/12/25 01:51:39;;;;;;;101.25;22.40;;;5.00;99.90;;;;;;5027915;28;20049;-80
2022/12/25 01:54:08;;;;;;;55.85;19.35;;;4.90;99.90;;;;;;5025397;28;20089;-81
2022/12/25 01:56:37;;;;;;;59.13;18.52;;;4.90;99.90;;;;;;4993821;28;20070;-80
2022/12/25 01:59:04;;;;;;;60.78;17.55;;;4.90;99.90;;;;;;5028981;28;20053;-80
2022/12/25 02:01:30;;;;;;;65.13;17.58;;;5.00;99.90;;;;;;5027846;28;20542;-80
2022/12/25 02:04:04;;;;;;;55.67;17.73;;;5.00;99.90;;;;;;5012267;28;20045;-80
2022/12/25 02:06:29;;;;;;;61.05;18.25;;;4.90;99.90;;;;;;5027475;28;20049;-80
2022/12/25 02:08:57;;;;;;;49.53;15.38;;;5.00;99.90;;;;;;5028673;28;20044;-80
2022/12/25 02:14:06;;;;;;;61.88;16.88;;;5.10;99.90;;;;;;5029706;28;20045;-81
2022/12/25 02:16:34;;;;;;;53.30;15.77;;;5.10;99.90;;;;;;5026660;28;20042;-80
2022/12/25 02:19:22;;;;;;;63.58;16.63;;;5.10;99.90;;;;;;5029609;28;20042;-81
2022/12/25 02:22:04;;;;;;;64.50;16.50;;;5.10;99.90;;;;;;5015486;28;20491;-80
2022/12/25 02:24:59;;;;;;;68.57;17.23;;;5.10;99.90;;;;;;5030638;28;20046;-80
2022/12/25 02:27:44;;;;;;;81.63;18.27;;;5.10;99.90;;;;;;5026185;28;21157;-80
2022/12/25 02:30:10;;;;;;;70.60;17.77;;;5.10;99.90;;;;;;5022533;28;20049;-81
2022/12/25 02:32:49;;;;;;;60.95;17.30;;;5.20;99.90;;;;;;5023061;28;20056;-80
2022/12/25 02:35:27;;;;;;;53.33;14.30;;;5.20;99.90;;;;;;5008695;28;20053;-80
2022/12/25 02:38:05;;;;;;;56.55;15.10;;;5.30;99.90;;;;;;5000318;28;20515;-80
2022/12/25 02:40:42;;;;;;;57.03;16.55;;;5.20;99.90;;;;;;5018416;28;20057;-80
2022/12/25 03:12:01;;;;;;;58.63;16.50;;;5.90;99.90;;;;;;5008690;28;20062;-81
2022/12/25 03:17:11;;;;;;;50.40;15.63;;;6.00;99.90;;;;;;5026210;28;20053;-80
2022/12/25 03:27:56;;;;;;;52.03;14.40;;;6.10;99.90;;;;;;5025725;28;20057;-81
2022/12/25 03:33:37;;;;;;;43.70;14.00;;;6.10;99.90;;;;;;5032357;28;20050;-80
2022/12/25 03:36:04;;;;;;;50.50;14.80;;;6.20;99.90;;;;;;5011345;28;20055;-80
2022/12/25 04:37:38;;;;;;;60.85;16.48;;;6.80;99.90;;;;;;5018463;28;20049;-80
2022/12/25 04:40:06;;;;;;;54.13;17.05;;;6.80;99.90;;;;;;5013356;28;20042;-81
2022/12/25 04:42:32;;;;;;;51.85;17.48;;;6.80;99.90;;;;;;5020168;28;20495;-81
2022/12/25 04:44:57;;;;;;;53.03;17.40;;;6.90;99.90;;;;;;5030392;28;20056;-80
2022/12/25 04:47:23;;;;;;;61.35;18.48;;;6.90;99.90;;;;;;5030128;28;20050;-81
2022/12/25 04:49:49;;;;;;;60.80;17.13;;;7.00;99.90;;;;;;5015990;28;20053;-81
2022/12/25 04:52:15;;;;;;;57.10;17.50;;;7.00;99.90;;;;;;5015626;28;20064;-80
2022/12/25 04:54:40;;;;;;;64.53;18.27;;;7.00;99.90;;;;;;5018723;28;20053;-81
2022/12/25 04:57:06;;;;;;;63.80;18.75;;;7.60;99.90;;;;;;5023453;28;20066;-81
2022/12/25 04:59:32;;;;;;;58.58;17.83;;;7.00;99.90;;;;;;5010567;28;20121;-80
2022/12/25 05:01:57;;;;;;;64.95;18.88;;;7.10;99.90;;;;;;5035956;28;20530;-80
2022/12/25 05:04:23;;;;;;;62.92;18.73;;;7.10;99.90;;;;;;5030115;28;20045;-80
2022/12/25 05:06:49;;;;;;;61.03;20.25;;;7.10;99.90;;;;;;5026246;28;20045;-81
2022/12/25 05:09:14;;;;;;;68.43;19.35;;;7.10;99.90;;;;;;5013279;28;20038;-81
2022/12/25 05:11:40;;;;;;;60.88;18.67;;;7.20;99.90;;;;;;5029006;28;20042;-80
2022/12/25 05:14:05;;;;;;;64.03;19.27;;;7.20;99.90;;;;;;5028662;28;20091;-81
2022/12/25 05:16:31;;;;;;;70.43;21.48;;;7.20;99.90;;;;;;5029061;28;20420;-81
2022/12/25 05:18:57;;;;;;;63.03;19.13;;;7.30;99.90;;;;;;5012602;28;20045;-81
2022/12/25 05:21:22;;;;;;;68.40;21.17;;;7.30;99.90;;;;;;5031447;28;20069;-81
2022/12/25 05:23:50;;;;;;;71.13;20.88;;;7.30;99.90;;;;;;5027639;28;20486;-80
2022/12/25 05:26:22;;;;;;;72.15;20.35;;;7.30;99.90;;;;;;5017110;28;20049;-80
2022/12/25 05:28:48;;;;;;;57.30;18.98;;;7.30;99.90;;;;;;5029134;28;20049;-80
2022/12/25 05:31:14;;;;;;;72.30;19.80;;;7.40;99.90;;;;;;5029326;28;20077;-80
2022/12/25 05:33:40;;;;;;;60.63;19.42;;;7.40;99.90;;;;;;5010940;28;20080;-81
2022/12/25 05:36:11;;;;;;;54.58;18.67;;;7.40;99.90;;;;;;5012810;28;20083;-81
2022/12/25 05:38:37;;;;;;;57.38;19.30;;;7.40;99.90;;;;;;5029346;28;20490;-80
2022/12/25 05:41:04;;;;;;;68.78;20.45;;;7.50;99.90;;;;;;5007437;28;20064;-80
2022/12/25 05:43:30;;;;;;;56.85;21.23;;;7.50;99.90;;;;;;5028931;28;20054;-80
2022/12/25 05:45:56;;;;;;;59.45;20.85;;;7.50;99.90;;;;;;5011385;28;20048;-80
2022/12/25 05:48:22;;;;;;;64.65;21.50;;;7.60;99.90;;;;;;5030770;28;20077;-80
2022/12/25 05:50:51;;;;;;;63.53;21.17;;;7.60;99.90;;;;;;5029867;28;20076;-81
2022/12/25 05:53:16;;;;;;;66.15;22.00;;;7.70;99.90;;;;;;5012505;28;20045;-81
2022/12/25 05:55:42;;;;;;;69.40;22.95;;;7.70;99.90;;;;;;5014269;28;20849;-81
2022/12/25 05:58:09;;;;;;;73.10;21.92;;;7.90;99.90;;;;;;5025758;28;20064;-81
2022/12/25 06:00:35;;;;;;;71.47;22.13;;;7.80;99.90;;;;;;5014047;28;20049;-80
2022/12/25 06:03:03;;;;;;;68.25;21.92;;;7.80;99.90;;;;;;5021772;28;20085;-80
2022/12/25 06:05:30;;;;;;;83.25;23.25;;;7.80;99.90;;;;;;5014254;28;20049;-81
2022/12/25 06:07:56;;;;;;;72.65;22.33;;;7.80;99.90;;;;;;5010944;28;20050;-80
2022/12/25 06:10:21;;;;;;;68.18;21.95;;;7.80;99.90;;;;;;5020163;28;20041;-81
2022/12/25 06:12:47;;;;;;;73.30;21.33;;;7.80;99.90;;;;;;5028410;28;20056;-80
2022/12/25 06:15:13;;;;;;;84.05;23.65;;;7.80;99.90;;;;;;5013444;28;20109;-81
2022/12/25 06:17:38;;;;;;;78.30;23.15;;;7.80;99.90;;;;;;5026949;28;20099;-81
2022/12/25 06:20:05;;;;;;;59.03;20.20;;;7.80;99.90;;;;;;5029041;28;20141;-81
2022/12/25 06:22:32;;;;;;;60.20;21.05;;;7.80;99.90;;;;;;5028851;28;20136;-81
2022/12/25 06:24:58;;;;;;;57.92;20.83;;;7.80;99.90;;;;;;5028288;28;20041;-80
2022/12/25 06:27:25;;;;;;;66.47;22.23;;;7.80;99.90;;;;;;5011400;28;20403;-81
2022/12/25 06:29:50;;;;;;;73.35;21.98;;;7.80;99.90;;;;;;5020760;28;20061;-81
2022/12/25 06:32:16;;;;;;;63.03;21.25;;;7.80;99.90;;;;;;5022954;28;20396;-80
2022/12/25 06:34:41;;;;;;;71.38;21.48;;;7.90;99.90;;;;;;5022608;28;20100;-81
2022/12/25 06:37:07;;;;;;;59.38;19.30;;;7.80;99.90;;;;;;5015188;28;20079;-81
2022/12/25 06:39:33;;;;;;;68.50;21.17;;;7.80;99.90;;;;;;5010447;28;20076;-81
2022/12/25 06:41:58;;;;;;;56.47;19.85;;;7.80;99.90;;;;;;5027658;28;20074;-80
2022/12/25 06:44:24;;;;;;;67.13;21.10;;;7.80;99.90;;;;;;5017524;28;20041;-81
2022/12/25 06:46:52;;;;;;;60.00;20.58;;;7.80;99.90;;;;;;5009827;28;20063;-80
2022/12/25 06:49:17;;;;;;;60.17;19.98;;;7.80;99.90;;;;;;5022370;28;20068;-80
2022/12/25 06:51:45;;;;;;;65.78;20.80;;;7.80;99.90;;;;;;5023326;28;20511;-80
2022/12/25 06:54:10;;;;;;;66.75;20.92;;;7.80;99.90;;;;;;5009630;28;20050;-80
2022/12/25 06:56:36;;;;;;;58.20;18.48;;;7.70;99.90;;;;;;5018408;28;20135;-80
2022/12/25 06:59:05;;;;;;;53.85;19.58;;;7.70;99.90;;;;;;5022052;28;20194;-80
2022/12/25 07:01:34;;;;;;;53.58;18.35;;;7.70;99.90;;;;;;5025534;28;20041;-81
2022/12/25 07:04:03;;;;;;;52.03;18.50;;;7.70;99.90;;;;;;5008272;28;20060;-80
2022/12/25 07:06:29;;;;;;;44.83;18.10;;;7.80;99.90;;;;;;5025178;28;20038;-80
2022/12/25 07:08:54;;;;;;;50.88;18.42;;;7.80;99.90;;;;;;4997720;28;20053;-80
2022/12/25 07:11:21;;;;;;;53.90;18.38;;;7.80;99.90;;;;;;5004457;28;20050;-80
2022/12/25 07:13:46;;;;;;;51.40;17.52;;;7.80;99.90;;;;;;5024143;28;20052;-80
2022/12/25 07:16:13;;;;;;;47.92;16.98;;;7.80;99.90;;;;;;5010710;28;20046;-80
2022/12/25 07:18:39;;;;;;;51.05;18.20;;;7.80;99.90;;;;;;5023582;28;20525;-80
2022/12/25 07:21:10;;;;;;;46.45;17.80;;;7.80;99.90;;;;;;5026830;28;20046;-80
2022/12/25 07:23:36;;;;;;;42.20;15.75;;;7.80;99.90;;;;;;5025617;28;20081;-81
2022/12/25 07:26:02;;;;;;;44.08;17.42;;;7.80;99.90;;;;;;5016697;28;20076;-80
2022/12/25 07:28:28;;;;;;;43.45;16.27;;;7.80;99.90;;;;;;5026833;28;20476;-80
2022/12/25 07:30:54;;;;;;;33.40;14.95;;;7.80;99.90;;;;;;5023382;28;20038;-80
2022/12/25 07:33:19;;;;;;;33.65;15.07;;;7.80;99.90;;;;;;5021616;28;20044;-80
2022/12/25 07:35:45;;;;;;;40.30;14.27;;;7.80;99.90;;;;;;5010835;28;20033;-81
2022/12/25 07:38:11;;;;;;;39.50;14.45;;;7.80;99.90;;;;;;5027555;28;20049;-80
2022/12/25 07:40:37;;;;;;;31.30;13.57;;;7.80;99.90;;;;;;5021904;28;20045;-80
2022/12/25 07:43:03;;;;;;;29.48;13.40;;;7.80;99.90;;;;;;5026497;28;20081;-81
2022/12/25 07:45:29;;;;;;;32.17;13.48;;;7.80;99.90;;;;;;5027097;28;20076;-81
2022/12/25 07:47:54;;;;;;;32.05;14.00;;;7.80;99.90;;;;;;5026952;28;20235;-80
2022/12/25 07:50:20;;;;;;;35.08;13.60;;;7.80;99.90;;;;;;5028806;28;20353;-80
2022/12/25 07:52:45;;;;;;;37.88;13.68;;;7.80;99.90;;;;;;5025831;28;20432;-80
2022/12/25 07:55:12;;;;;;;34.20;12.90;;;7.70;99.90;;;;;;5026224;28;20049;-80
2022/12/25 07:57:38;;;;;;;29.77;13.15;;;7.70;99.90;;;;;;5027934;28;20128;-80
2022/12/25 08:00:05;;;;;;;27.10;12.07;;;7.70;99.90;;;;;;5028386;28;20129;-81
2022/12/25 08:02:31;;;;;;;33.80;12.85;;;7.80;99.90;;;;;;5027649;28;20084;-80
2022/12/25 08:04:57;;;;;;;25.75;11.52;;;7.70;99.90;;;;;;5026203;28;20140;-80
2022/12/25 08:07:23;;;;;;;31.85;13.18;;;7.70;99.90;;;;;;5028418;28;20048;-81
2022/12/25 08:09:49;;;;;;;34.45;12.73;;;7.80;99.90;;;;;;5027925;28;20144;-80
2022/12/25 08:12:15;;;;;;;32.80;13.82;;;7.80;99.90;;;;;;5010400;28;20394;-81
2022/12/25 08:14:40;;;;;;;35.50;14.48;;;7.80;99.90;;;;;;5026322;28;20095;-81
2022/12/25 08:17:06;;;;;;;27.92;13.15;;;7.80;99.90;;;;;;5025882;28;20053;-81
2022/12/25 08:19:32;;;;;;;29.90;12.68;;;7.80;99.90;;;;;;5008210;28;20447;-80
2022/12/25 08:21:58;;;;;;;31.88;13.65;;;7.80;99.90;;;;;;5008484;28;20190;-82
2022/12/25 08:24:23;;;;;;;31.98;12.57;;;7.80;99.90;;;;;;5006646;28;20046;-81
2022/12/25 08:26:49;;;;;;;30.77;12.43;;;7.80;99.90;;;;;;5006331;28;20049;-83
2022/12/25 08:29:15;;;;;;;24.27;11.82;;;7.80;99.90;;;;;;5006711;28;20054;-82
2022/12/25 08:31:42;;;;;;;31.38;11.45;;;7.80;99.90;;;;;;5008504;28;20099;-82
2022/12/25 08:34:08;;;;;;;28.65;13.73;;;7.80;99.90;;;;;;5025929;28;20499;-82
2022/12/25 08:36:34;;;;;;;30.88;11.35;;;7.80;99.90;;;;;;5018967;28;20125;-82
2022/12/25 08:38:59;;;;;;;30.25;11.30;;;7.80;99.90;;;;;;5011508;28;20179;-83
2022/12/25 08:41:25;;;;;;;25.65;11.55;;;7.80;99.90;;;;;;5007216;28;20048;-82
2022/12/25 08:43:51;;;;;;;22.02;10.40;;;7.80;99.90;;;;;;5025934;28;20816;-83
2022/12/25 08:46:17;;;;;;;27.50;11.80;;;7.80;99.90;;;;;;5026586;28;20100;-83
2022/12/25 08:48:44;;;;;;;27.77;10.82;;;7.80;99.90;;;;;;5010424;28;20098;-82
2022/12/25 08:51:15;;;;;;;24.20;10.65;;;7.80;99.90;;;;;;5024493;28;20045;-82
2022/12/25 08:53:46;;;;;;;19.00;9.90;;;7.80;99.90;;;;;;5007511;28;20108;-81
2022/12/25 08:56:13;;;;;;;26.42;11.63;;;7.80;99.90;;;;;;5007688;28;20574;-82
2022/12/25 08:58:39;;;;;;;28.65;11.07;;;7.80;99.90;;;;;;5006618;28;20084;-82
2022/12/25 09:01:06;;;;;;;29.33;11.50;;;7.80;99.90;;;;;;5007879;28;20458;-82
2022/12/25 09:03:32;;;;;;;27.60;10.68;;;7.90;99.90;;;;;;5007829;28;20054;-82
2022/12/25 09:06:06;;;;;;;23.10;10.57;;;7.90;99.90;;;;;;5007849;28;20466;-82
2022/12/25 09:08:31;;;;;;;22.45;9.82;;;7.80;99.90;;;;;;5027707;28;20108;-82
2022/12/25 09:11:09;;;;;;;19.48;9.38;;;7.90;99.90;;;;;;5010512;28;20096;-82
2022/12/25 09:13:35;;;;;;;21.77;10.40;;;7.90;99.90;;;;;;5010374;28;20129;-84
2022/12/25 09:16:05;;;;;;;25.42;10.75;;;7.90;99.90;;;;;;5007948;28;20124;-81
2022/12/25 09:18:31;;;;;;;22.65;9.77;;;8.00;99.90;;;;;;5007281;28;20046;-81
2022/12/25 09:21:01;;;;;;;27.85;10.57;;;8.00;99.90;;;;;;5008285;28;20103;-81
2022/12/25 09:23:28;;;;;;;22.73;10.57;;;8.00;99.90;;;;;;5006454;28;20160;-82
2022/12/25 09:25:54;;;;;;;19.92;9.45;;;8.00;99.90;;;;;;5006532;28;20073;-81
2022/12/25 09:28:20;;;;;;;19.80;9.80;;;8.00;99.90;;;;;;5013014;28;20180;-82
2022/12/25 09:30:49;;;;;;;25.63;10.48;;;8.00;99.90;;;;;;5022223;28;20400;-82
2022/12/25 09:33:14;;;;;;;21.58;10.32;;;8.10;99.90;;;;;;5026771;28;20054;-81
2022/12/25 09:35:40;;;;;;;18.77;8.93;;;8.10;99.90;;;;;;4993474;28;20504;-82
2022/12/25 09:38:05;;;;;;;21.75;10.35;;;8.10;99.90;;;;;;5009796;28;20052;-81
2022/12/25 09:40:31;;;;;;;22.92;10.38;;;8.10;99.90;;;;;;5011520;28;20054;-82
2022/12/25 09:42:58;;;;;;;23.10;10.82;;;8.20;99.90;;;;;;4993114;28;20052;-82
2022/12/25 09:45:28;;;;;;;24.80;10.75;;;8.10;99.90;;;;;;5023574;28;20124;-81
2022/12/25 09:47:55;;;;;;;20.33;9.63;;;8.20;99.90;;;;;;5012548;28;20049;-81
2022/12/25 09:50:45;;;;;;;22.50;10.13;;;8.20;99.90;;;;;;5027264;28;20037;-81
2022/12/25 09:53:15;;;;;;;24.05;9.98;;;8.20;99.90;;;;;;5030259;28;20120;-81
2022/12/25 09:56:29;;;;;;;18.13;9.45;;;8.30;99.90;;;;;;5026635;28;20049;-81
2022/12/25 09:58:55;;;;;;;17.63;8.75;;;8.30;99.90;;;;;;5026865;28;20099;-81
2022/12/25 10:01:54;;;;;;;23.00;11.07;;;8.30;99.90;;;;;;5024721;28;20042;-80
2022/12/25 10:04:37;;;;;;;23.42;10.32;;;8.30;99.90;;;;;;5029467;28;20525;-82
2022/12/25 10:07:14;;;;;;;19.05;10.05;;;8.30;99.90;;;;;;5027129;28;20057;-81
2022/12/25 10:09:48;;;;;;;19.48;10.10;;;8.30;99.90;;;;;;5029729;28;20084;-81
2022/12/25 10:12:48;;;;;;;26.88;10.40;;;8.30;99.90;;;;;;5028628;28;20467;-82
2022/12/25 10:15:35;;;;;;;22.02;9.50;;;8.30;99.90;;;;;;5026720;28;20474;-82
2022/12/25 10:18:03;;;;;;;19.10;9.70;;;8.40;99.90;;;;;;5019592;28;20046;-82
2022/12/25 10:20:39;;;;;;;20.13;9.93;;;8.40;99.90;;;;;;5010585;28;20050;-82
2022/12/25 10:23:12;;;;;;;20.65;9.75;;;8.40;99.90;;;;;;5010098;28;20056;-82
2022/12/25 10:25:39;;;;;;;20.63;9.30;;;8.40;99.90;;;;;;5009054;28;20689;-82
2022/12/25 10:28:13;;;;;;;19.30;9.73;;;8.40;99.90;;;;;;5010685;28;20049;-82
2022/12/25 10:30:42;;;;;;;19.00;9.23;;;8.50;99.90;;;;;;5023487;28;20050;-82
2022/12/25 10:33:09;;;;;;;17.17;9.43;;;8.40;99.90;;;;;;5022341;28;20124;-82
2022/12/25 10:35:36;;;;;;;20.85;9.20;;;8.50;99.90;;;;;;5022266;28;20050;-82
2022/12/25 10:38:13;;;;;;;19.98;9.35;;;8.50;99.90;;;;;;5023728;28;20055;-82
2022/12/25 10:40:57;;;;;;;18.83;9.63;;;8.50;99.90;;;;;;5025884;28;20115;-81
2022/12/25 10:43:34;;;;;;;18.85;9.45;;;8.50;99.90;;;;;;5029868;28;20049;-85
2022/12/25 10:45:59;;;;;;;18.70;9.27;;;8.50;99.90;;;;;;5028596;28;20050;-84
2022/12/25 10:48:28;;;;;;;22.33;9.27;;;8.50;99.90;;;;;;5026970;28;20045;-82
2022/12/25 10:50:55;;;;;;;20.83;10.07;;;8.50;99.90;;;;;;5018326;28;20589;-84
2022/12/25 10:53:35;;;;;;;20.33;11.13;;;8.60;99.90;;;;;;5017925;28;20041;-83
2022/12/25 10:56:04;;;;;;;28.70;13.65;;;8.60;99.90;;;;;;5029587;28;20049;-82
2022/12/25 10:58:30;;;;;;;23.35;11.07;;;8.60;99.90;;;;;;5027808;28;20057;-82
2022/12/25 11:01:06;;;;;;;22.95;11.82;;;8.70;99.90;;;;;;5029592;28;20041;-83
2022/12/25 11:03:34;;;;;;;22.40;10.30;;;8.70;99.90;;;;;;5028952;28;20045;-82
2022/12/25 11:06:01;;;;;;;19.35;9.77;;;8.70;99.90;;;;;;5028445;28;20446;-82
2022/12/25 11:08:30;;;;;;;19.13;9.57;;;8.70;99.90;;;;;;5026524;28;20114;-83
2022/12/25 11:11:04;;;;;;;19.85;10.30;;;8.80;99.90;;;;;;5023304;28;20064;-81
2022/12/25 11:13:37;;;;;;;19.33;9.45;;;8.80;99.90;;;;;;4991904;28;20034;-81
2022/12/25 11:16:13;;;;;;;18.27;9.43;;;8.80;99.90;;;;;;5009825;28;20716;-83
2022/12/25 11:18:47;;;;;;;18.52;9.75;;;8.80;99.90;;;;;;5008215;28;20467;-83
2022/12/25 11:21:27;;;;;;;22.58;9.40;;;8.80;99.90;;;;;;5009122;28;20045;-82
2022/12/25 11:24:01;;;;;;;18.77;9.40;;;8.90;99.90;;;;;;5026168;28;20049;-82
2022/12/25 11:26:29;;;;;;;19.83;9.68;;;8.90;99.90;;;;;;4991660;28;20095;-82
2022/12/25 11:28:57;;;;;;;21.88;9.82;;;8.90;99.90;;;;;;5015148;28;20538;-83
2022/12/25 11:31:36;;;;;;;22.73;10.23;;;8.90;99.90;;;;;;5027990;28;20073;-81
2022/12/25 11:34:15;;;;;;;25.25;10.82;;;8.90;99.90;;;;;;5015704;28;20895;-84
2022/12/25 11:36:49;;;;;;;27.98;14.10;;;9.20;99.90;;;;;;5012743;28;20128;-82
2022/12/25 11:39:27;;;;;;;18.98;11.52;;;9.00;99.90;;;;;;5027222;28;20056;-78
2022/12/25 11:42:12;;;;;;;18.15;10.10;;;9.10;99.90;;;;;;5026684;28;20399;-80
2022/12/25 11:44:46;;;;;;;20.40;11.27;;;9.10;99.90;;;;;;5027422;28;20128;-80
2022/12/25 11:47:31;;;;;;;19.27;10.00;;;8.70;99.90;;;;;;5028339;28;20171;-79
2022/12/25 11:50:16;;;;;;;19.48;10.32;;;9.20;99.90;;;;;;5015350;28;20049;-80
2022/12/25 11:52:44;;;;;;;22.55;10.40;;;9.20;99.90;;;;;;5021897;28;20269;-80
2022/12/25 11:55:14;;;;;;;21.45;10.77;;;9.30;99.90;;;;;;5027453;28;20049;-79
2022/12/25 11:57:42;;;;;;;21.40;10.18;;;9.30;99.90;;;;;;5027701;28;20049;-79
2022/12/25 12:00:14;;;;;;;21.92;10.95;;;9.30;99.90;;;;;;5028609;28;20136;-79
2022/12/25 12:03:10;;;;;;;22.50;10.73;;;9.30;99.90;;;;;;5027180;28;20049;-79
2022/12/25 12:05:44;;;;;;;19.48;11.05;;;9.30;99.90;;;;;;5026426;28;20049;-79
2022/12/25 12:08:10;;;;;;;18.48;11.07;;;9.20;99.90;;;;;;5021861;28;20423;-79
2022/12/25 12:10:41;;;;;;;20.83;11.98;;;9.20;99.90;;;;;;5007481;28;20145;-80
2022/12/25 12:13:42;;;;;;;21.52;12.25;;;9.20;99.90;;;;;;5009608;28;20493;-79
2022/12/25 12:16:11;;;;;;;27.58;13.32;;;9.20;99.90;;;;;;5023161;28;20065;-79
2022/12/25 12:18:36;;;;;;;24.17;13.25;;;9.20;99.90;;;;;;5027103;28;20124;-80
2022/12/25 12:21:04;;;;;;;23.83;13.73;;;9.20;99.90;;;;;;5026054;28;20487;-79
2022/12/25 12:23:34;;;;;;;19.73;13.35;;;9.20;99.90;;;;;;5021667;28;20042;-79
2022/12/25 12:26:01;;;;;;;21.73;13.02;;;9.20;99.90;;;;;;5016726;28;20545;-79
2022/12/25 12:28:41;;;;;;;19.77;11.25;;;9.20;99.90;;;;;;5016401;28;20456;-80
2022/12/25 12:31:08;;;;;;;18.67;10.63;;;9.20;99.90;;;;;;5027457;28;20102;-79
2022/12/25 12:33:47;;;;;;;19.73;10.02;;;9.20;99.90;;;;;;5010399;28;20120;-80
2022/12/25 12:36:14;;;;;;;19.83;10.88;;;9.20;99.90;;;;;;5025498;28;20049;-79
2022/12/25 12:38:42;;;;;;;25.20;10.48;;;9.20;99.90;;;;;;5026228;28;20053;-80
2022/12/25 12:41:13;;;;;;;17.15;9.88;;;9.10;99.90;;;;;;5019522;28;20481;-80
2022/12/25 12:43:58;;;;;;;19.17;10.20;;;9.10;99.90;;;;;;5024718;28;20091;-79
2022/12/25 12:46:25;;;;;;;19.52;10.32;;;9.20;99.90;;;;;;5041000;28;20037;-80
2022/12/25 12:48:53;;;;;;;17.02;8.85;;;9.10;99.90;;;;;;5020294;28;20053;-79
2022/12/25 12:51:36;;;;;;;22.40;11.00;;;9.10;99.90;;;;;;5012141;28;20118;-79
2022/12/25 12:54:24;;;;;;;15.52;8.68;;;9.20;99.90;;;;;;5027993;28;20045;-79
2022/12/25 12:56:57;;;;;;;15.93;9.25;;;9.20;99.90;;;;;;5025683;28;20053;-78
2022/12/25 12:59:24;;;;;;;17.00;9.55;;;9.20;99.90;;;;;;5026443;28;20056;-78
2022/12/25 13:02:13;;;;;;;18.65;9.23;;;9.20;99.90;;;;;;5026457;28;20227;-80
2022/12/25 13:04:49;;;;;;;17.45;8.88;;;9.20;99.90;;;;;;5031332;28;20072;-83
2022/12/25 13:07:27;;;;;;;20.42;9.52;;;9.20;99.90;;;;;;5015118;28;20103;-81
2022/12/25 13:10:02;;;;;;;18.05;9.07;;;9.20;99.90;;;;;;5012023;28;20764;-82
2022/12/25 13:12:28;;;;;;;21.55;9.60;;;9.10;99.90;;;;;;4998296;28;20042;-83
2022/12/25 13:14:53;;;;;;;20.52;8.93;;;9.20;99.90;;;;;;5020626;28;20071;-81
2022/12/25 13:17:22;;;;;;;19.98;9.57;;;9.10;99.90;;;;;;5017832;28;20053;-83
2022/12/25 13:19:54;;;;;;;14.95;9.65;;;9.10;99.90;;;;;;5009619;28;20092;-82
2022/12/25 13:22:23;;;;;;;15.93;10.00;;;9.10;99.90;;;;;;5021805;28;20045;-83
2022/12/25 13:25:01;;;;;;;15.20;8.40;;;9.10;99.90;;;;;;5029150;28;20046;-83
2022/12/25 13:27:30;;;;;;;17.77;8.85;;;9.10;99.90;;;;;;5028757;28;20056;-82
2022/12/25 13:29:56;;;;;;;22.15;9.05;;;9.10;99.90;;;;;;5029588;28;20132;-82
2022/12/25 13:32:32;;;;;;;20.00;8.88;;;9.10;99.90;;;;;;5029473;28;20092;-80
2022/12/25 13:34:59;;;;;;;15.13;8.43;;;9.10;99.90;;;;;;5027455;28;20049;-81
2022/12/25 13:37:28;;;;;;;19.15;9.15;;;9.00;99.90;;;;;;5011815;28;20060;-81
2022/12/25 13:40:00;;;;;;;19.00;8.85;;;9.00;99.90;;;;;;5027813;28;20426;-80
2022/12/25 13:42:29;;;;;;;22.63;9.13;;;9.10;99.90;;;;;;5030087;28;20038;-81
2022/12/25 13:44:59;;;;;;;13.40;8.32;;;8.60;99.90;;;;;;5030958;28;20099;-82
2022/12/25 13:47:36;;;;;;;17.05;9.45;;;9.00;99.90;;;;;;5030499;28;20091;-82
2022/12/25 13:50:29;;;;;;;16.42;9.35;;;9.00;99.90;;;;;;5014771;28;20048;-81
2022/12/25 13:52:57;;;;;;;15.10;9.55;;;9.20;99.90;;;;;;5029592;28;20431;-81
2022/12/25 13:55:25;;;;;;;20.23;9.90;;;9.00;99.90;;;;;;5030199;28;20071;-81
2022/12/25 13:57:57;;;;;;;15.25;8.65;;;9.00;99.90;;;;;;5026078;28;20137;-81
2022/12/25 14:00:24;;;;;;;;;;;9.00;99.90;;;;;;5014839;28;20054;-82
2022/12/25 14:02:50;;;;;;;17.25;9.45;;;8.90;99.90;;;;;;5011007;28;19949;-82
2022/12/25 14:05:32;;;;;;;15.40;9.65;;;8.90;99.90;;;;;;5011306;28;20057;-82
2022/12/25 14:08:01;;;;;;;17.80;10.37;;;8.90;99.90;;;;;;5023521;28;20038;-80
2022/12/25 14:10:32;;;;;;;18.80;10.70;;;8.90;99.90;;;;;;5033538;28;20124;-81
2022/12/25 14:13:03;;;;;;;15.47;10.10;;;8.90;99.90;;;;;;5025006;28;20065;-81
2022/12/25 14:15:31;;;;;;;20.52;10.93;;;8.90;99.90;;;;;;5029383;28;20844;-81
2022/12/25 14:17:58;;;;;;;16.10;10.85;;;8.80;99.90;;;;;;5013146;28;20034;-82
2022/12/25 14:20:26;;;;;;;14.77;11.13;;;8.80;99.90;;;;;;5010122;28;20045;-81
2022/12/25 14:22:55;;;;;;;28.02;18.13;;;8.80;99.90;;;;;;5008409;28;20074;-81
2022/12/25 14:25:26;;;;;;;19.30;13.65;;;8.80;99.90;;;;;;4992654;28;20057;-82
2022/12/25 14:27:52;;;;;;;23.43;13.60;;;8.80;99.90;;;;;;5017908;28;20428;-81
2022/12/25 14:30:18;;;;;;;20.75;13.23;;;8.80;99.90;;;;;;5028729;28;20273;-81
2022/12/25 14:32:49;;;;;;;22.08;13.73;;;8.80;99.90;;;;;;5011732;28;20054;-82
2022/12/25 14:35:16;;;;;;;20.02;12.40;;;8.80;99.90;;;;;;5015131;28;20543;-82
2022/12/25 14:37:43;;;;;;;23.05;15.35;;;8.80;99.90;;;;;;5027914;28;20052;-81